Time,TemperatureF,DewpointF,PressureIn,WindDirection,WindDirectionDegrees,WindSpeedMPH,WindSpeedGustMPH,Humidity,HourlyPrecipIn,Conditions,Clouds,dailyrainin,SoftwareType,DateUTC
2013-04-16 00:00:00,63.9,62.5,30.21,NNE,17,0.0,0.0,95,0.00, ,,-99.99,VWS V12.07,2013-04-16 04:00:00,
2013-04-16 00:01:00,63.9,62.5,30.21,NNE,17,0.0,0.0,95,0.00, ,,-99.99,VWS V12.07,2013-04-16 04:01:00,
2013-04-16 00:02:00,64.1,62.8,30.21,NNE,17,0.0,0.0,95,0.00, ,,-99.99,VWS V12.07,2013-04-16 04:02:00,
2013-04-16 00:06:00,64.0,62.7,30.21,NNE,17,0.0,0.0,96,0.00, ,,-99.99,VWS V12.07,2013-04-16 04:06:00,
2013-04-16 00:10:00,63.7,62.4,30.21,North,354,5.8,7.0,96,0.00, ,,-99.99,VWS V12.07,2013-04-16 04:10:00,
2013-04-16 00:15:00,63.8,62.6,30.21,NNW,334,0.0,7.0,96,0.00, ,,-99.99,VWS V12.07,2013-04-16 04:15:00,
2013-04-16 00:20:00,63.8,62.6,30.21,NNE,28,0.0,6.8,96,0.00, ,,-99.99,VWS V12.07,2013-04-16 04:20:00,
2013-04-16 00:25:00,64.0,62.9,30.21,North,358,4.5,6.8,96,0.00, ,,-99.99,VWS V12.07,2013-04-16 04:25:00,
2013-04-16 00:30:00,63.7,62.6,30.21,North,8,5.3,8.0,96,0.00, ,,-99.99,VWS V12.07,2013-04-16 04:30:00,
2013-04-16 00:35:00,63.6,62.6,30.21,North,4,7.1,8.1,96,0.00, ,,-99.99,VWS V12.07,2013-04-16 04:35:00,
2013-04-16 00:41:00,63.5,62.6,30.21,North,350,4.3,7.2,97,0.00, ,,-99.99,VWS V12.07,2013-04-16 04:41:00,
2013-04-16 00:46:00,63.9,63.1,30.21,North,7,7.5,7.6,97,0.00, ,,-99.99,VWS V12.07,2013-04-16 04:46:00,
2013-04-16 00:51:00,63.6,62.8,30.21,NNE,15,5.7,8.1,97,0.00, ,,-99.99,VWS V12.07,2013-04-16 04:51:00,
2013-04-16 00:56:00,63.2,62.4,30.21,NNE,26,7.4,7.4,97,0.00, ,,-99.99,VWS V12.07,2013-04-16 04:56:00,
2013-04-16 01:01:00,63.4,62.7,30.20,North,10,5.1,9.3,98,0.00, ,,-99.99,VWS V12.07,2013-04-16 05:01:00,
2013-04-16 01:07:00,63.0,62.4,30.20,NNE,25,8.6,9.3,98,0.00, ,,-99.99,VWS V12.07,2013-04-16 05:07:00,
2013-04-16 01:12:00,63.2,62.7,30.20,NNE,24,7.9,11.0,98,0.00, ,,-99.99,VWS V12.07,2013-04-16 05:12:00,
2013-04-16 01:17:00,63.4,62.9,30.20,NNE,25,6.5,7.3,98,0.00, ,,-99.99,VWS V12.07,2013-04-16 05:17:00,
2013-04-16 01:22:00,63.0,62.5,30.20,NNE,22,4.3,8.5,98,0.00, ,,-99.99,VWS V12.07,2013-04-16 05:22:00,
2013-04-16 01:27:00,62.7,62.3,30.20,NNE,19,8.3,10.4,98,0.00, ,,-99.99,VWS V12.07,2013-04-16 05:27:00,
2013-04-16 01:32:00,62.9,62.5,30.20,NE,43,7.3,10.4,99,0.00, ,,-99.99,VWS V12.07,2013-04-16 05:32:00,
2013-04-16 01:37:00,62.5,62.2,30.20,ENE,59,5.7,10.7,99,0.00, ,,-99.99,VWS V12.07,2013-04-16 05:37:00,
2013-04-16 01:42:00,62.4,62.2,30.20,NNE,12,9.6,11.6,99,0.00, ,,-99.99,VWS V12.07,2013-04-16 05:42:00,
2013-04-16 01:47:00,62.5,62.5,30.20,NNE,24,7.2,11.6,100,0.00, ,,-99.99,VWS V12.07,2013-04-16 05:47:00,
2013-04-16 01:52:00,62.4,62.4,30.20,North,8,7.5,11.6,100,0.00, ,,-99.99,VWS V12.07,2013-04-16 05:52:00,
2013-04-16 01:57:00,62.5,62.5,30.20,NNE,33,7.1,8.5,100,0.00, ,,-99.99,VWS V12.07,2013-04-16 05:57:00,
2013-04-16 02:02:00,62.0,62.0,30.20,NNE,24,6.6,9.5,100,0.00, ,,-99.99,VWS V12.07,2013-04-16 06:02:00,
2013-04-16 02:07:00,62.1,62.1,30.20,North,7,5.9,9.5,100,0.00, ,,-99.99,VWS V12.07,2013-04-16 06:07:00,
2013-04-16 02:12:00,62.2,62.2,30.20,NNE,14,3.0,9.5,100,0.00, ,,-99.99,VWS V12.07,2013-04-16 06:12:00,
2013-04-16 02:17:00,61.9,61.9,30.20,NNE,21,7.0,9.2,100,0.00, ,,-99.99,VWS V12.07,2013-04-16 06:17:00,
2013-04-16 02:22:00,62.5,62.5,30.20,NNE,24,4.5,9.2,100,0.00, ,,-99.99,VWS V12.07,2013-04-16 06:22:00,
2013-04-16 02:27:00,62.0,62.0,30.20,NNE,24,6.5,10.9,100,0.00, ,,-99.99,VWS V12.07,2013-04-16 06:27:00,
2013-04-16 02:32:00,62.1,62.1,30.20,NNE,17,3.5,10.9,100,0.00, ,,-99.99,VWS V12.07,2013-04-16 06:32:00,
2013-04-16 02:37:00,61.8,61.8,30.20,NNE,32,4.7,8.0,100,0.00, ,,-99.99,VWS V12.07,2013-04-16 06:37:00,
2013-04-16 02:42:00,62.2,62.2,30.20,North,8,7.0,10.1,100,0.00, ,,-99.99,VWS V12.07,2013-04-16 06:42:00,
2013-04-16 02:47:00,62.1,62.1,30.20,NNE,32,7.3,11.2,100,0.00, ,,-99.99,VWS V12.07,2013-04-16 06:47:00,
2013-04-16 02:52:00,62.4,62.4,30.20,NNE,24,7.5,11.4,100,0.00, ,,-99.99,VWS V12.07,2013-04-16 06:52:00,
2013-04-16 02:57:00,61.8,61.8,30.20,NNE,14,8.3,9.8,100,0.00, ,,-99.99,VWS V12.07,2013-04-16 06:57:00,
2013-04-16 03:02:00,62.1,62.1,30.20,North,360,6.1,9.8,100,0.00, ,,-99.99,VWS V12.07,2013-04-16 07:02:00,
2013-04-16 03:07:00,62.3,62.3,30.20,NNE,24,6.6,9.8,100,0.00, ,,-99.99,VWS V12.07,2013-04-16 07:07:00,
2013-04-16 03:12:00,62.0,62.0,30.20,NNE,26,6.5,10.1,100,0.00, ,,-99.99,VWS V12.07,2013-04-16 07:12:00,
2013-04-16 03:17:00,62.4,62.4,30.20,NNE,24,0.0,7.8,100,0.00, ,,-99.99,VWS V12.07,2013-04-16 07:17:00,
2013-04-16 03:22:00,62.6,62.6,30.20,NE,48,0.0,7.8,100,0.00, ,,-99.99,VWS V12.07,2013-04-16 07:22:00,
2013-04-16 03:27:00,62.6,62.6,30.20,North,11,6.0,10.4,100,0.00, ,,-99.99,VWS V12.07,2013-04-16 07:27:00,
2013-04-16 03:32:00,62.5,62.5,30.20,North,4,5.9,10.4,100,0.00, ,,-99.99,VWS V12.07,2013-04-16 07:32:00,
2013-04-16 03:38:00,62.3,62.3,30.20,North,11,6.7,7.6,100,0.00, ,,-99.99,VWS V12.07,2013-04-16 07:38:00,
2013-04-16 03:43:00,62.4,62.4,30.20,NNE,12,7.0,10.8,100,0.00, ,,-99.99,VWS V12.07,2013-04-16 07:43:00,
2013-04-16 03:48:00,62.7,62.7,30.20,North,8,7.8,10.8,100,0.00, ,,-99.99,VWS V12.07,2013-04-16 07:48:00,
2013-04-16 03:53:00,62.9,62.9,30.20,NNE,26,7.6,10.8,100,0.00, ,,-99.99,VWS V12.07,2013-04-16 07:53:00,
2013-04-16 03:58:00,62.5,62.5,30.20,NNE,15,8.6,10.0,100,0.00, ,,-99.99,VWS V12.07,2013-04-16 07:58:00,
2013-04-16 04:03:00,62.8,62.8,30.20,NNE,24,7.4,10.0,100,0.00, ,,-99.99,VWS V12.07,2013-04-16 08:03:00,
2013-04-16 04:08:00,62.7,62.7,30.20,North,357,5.0,10.0,100,0.00, ,,-99.99,VWS V12.07,2013-04-16 08:08:00,
2013-04-16 04:13:00,62.5,62.5,30.20,NNE,12,8.9,10.0,100,0.00, ,,-99.99,VWS V12.07,2013-04-16 08:13:00,
2013-04-16 04:18:00,62.8,62.8,30.20,North,358,5.0,8.9,100,0.00, ,,-99.99,VWS V12.07,2013-04-16 08:18:00,
2013-04-16 04:23:00,62.8,62.8,30.21,NNE,12,7.5,10.1,100,0.00, ,,-99.99,VWS V12.07,2013-04-16 08:23:00,
2013-04-16 04:28:00,62.6,62.6,30.21,North,4,7.1,10.1,100,0.00, ,,-99.99,VWS V12.07,2013-04-16 08:28:00,
2013-04-16 04:33:00,62.7,62.7,30.21,East,88,7.5,13.0,100,0.00, ,,-99.99,VWS V12.07,2013-04-16 08:33:00,
2013-04-16 04:38:00,63.0,63.0,30.21,NNE,22,8.0,8.9,100,0.00, ,,-99.99,VWS V12.07,2013-04-16 08:38:00,
2013-04-16 04:43:00,63.1,63.1,30.21,NE,53,4.3,9.6,100,0.00, ,,-99.99,VWS V12.07,2013-04-16 08:43:00,
2013-04-16 04:48:00,63.0,63.0,30.21,NNE,22,6.5,9.6,100,0.00, ,,-99.99,VWS V12.07,2013-04-16 08:48:00,
2013-04-16 04:53:00,63.3,63.3,30.21,NNE,24,4.5,9.6,100,0.00, ,,-99.99,VWS V12.07,2013-04-16 08:53:00,
2013-04-16 04:58:00,63.2,63.2,30.21,NNE,18,4.4,10.7,100,0.00, ,,-99.99,VWS V12.07,2013-04-16 08:58:00,
2013-04-16 05:03:00,63.2,63.2,30.21,NNE,15,6.3,10.7,100,0.00, ,,-99.99,VWS V12.07,2013-04-16 09:03:00,
2013-04-16 05:08:00,63.2,63.2,30.21,NNE,19,3.3,10.7,100,0.00, ,,-99.99,VWS V12.07,2013-04-16 09:08:00,
2013-04-16 05:13:00,63.3,63.3,30.21,NNE,32,7.4,11.2,100,0.00, ,,-99.99,VWS V12.07,2013-04-16 09:13:00,
2013-04-16 05:18:00,63.3,63.3,30.22,NNE,24,8.5,9.0,100,0.00, ,,-99.99,VWS V12.07,2013-04-16 09:18:00,
2013-04-16 05:23:00,63.3,63.3,30.21,NE,48,7.1,9.9,100,0.00, ,,-99.99,VWS V12.07,2013-04-16 09:23:00,
2013-04-16 05:28:00,63.8,63.8,30.22,NNE,12,9.1,12.0,100,0.00, ,,-99.99,VWS V12.07,2013-04-16 09:28:00,
2013-04-16 05:33:00,63.3,63.3,30.22,NNE,26,5.5,12.0,100,0.00, ,,-99.99,VWS V12.07,2013-04-16 09:33:00,
2013-04-16 05:38:00,63.4,63.4,30.22,NNE,24,5.4,7.8,100,0.00, ,,-99.99,VWS V12.07,2013-04-16 09:38:00,
2013-04-16 05:43:00,63.4,63.4,30.22,ENE,62,0.0,8.8,100,0.00, ,,-99.99,VWS V12.07,2013-04-16 09:43:00,
2013-04-16 05:48:00,64.1,64.1,30.22,ENE,63,2.9,8.8,100,0.00, ,,-99.99,VWS V12.07,2013-04-16 09:48:00,
2013-04-16 05:53:00,63.7,63.7,30.22,ENE,67,4.8,8.8,100,0.00, ,,-99.99,VWS V12.07,2013-04-16 09:53:00,
2013-04-16 05:58:00,63.6,63.6,30.22,NE,46,2.8,7.0,100,0.00, ,,-99.99,VWS V12.07,2013-04-16 09:58:00,
2013-04-16 06:03:00,64.3,64.3,30.22,NE,38,3.1,7.9,100,0.00, ,,-99.99,VWS V12.07,2013-04-16 10:03:00,
2013-04-16 06:08:00,64.1,64.1,30.23,NE,36,2.6,8.9,100,0.00, ,,-99.99,VWS V12.07,2013-04-16 10:08:00,
2013-04-16 06:13:00,63.7,63.7,30.23,NNE,21,3.3,8.9,100,0.00, ,,-99.99,VWS V12.07,2013-04-16 10:13:00,
2013-04-16 06:18:00,64.0,64.0,30.23,NNE,21,0.0,6.7,100,0.00, ,,-99.99,VWS V12.07,2013-04-16 10:18:00,
2013-04-16 06:23:00,64.6,64.6,30.23,NNE,15,0.0,6.7,100,0.00, ,,-99.99,VWS V12.07,2013-04-16 10:23:00,
2013-04-16 06:28:00,64.2,64.2,30.23,East,92,0.0,6.7,100,0.00, ,,-99.99,VWS V12.07,2013-04-16 10:28:00,
2013-04-16 06:33:00,64.9,64.9,30.23,ENE,59,0.0,6.7,100,0.00, ,,-99.99,VWS V12.07,2013-04-16 10:33:00,
2013-04-16 06:38:00,64.9,64.8,30.23,NE,36,0.0,7.2,100,0.00, ,,-99.99,VWS V12.07,2013-04-16 10:38:00,
2013-04-16 06:43:00,64.9,64.7,30.23,ENE,70,0.0,7.5,99,0.00, ,,-99.99,VWS V12.07,2013-04-16 10:43:00,
2013-04-16 06:48:00,64.6,64.5,30.23,ENE,70,0.0,7.5,100,0.00, ,,-99.99,VWS V12.07,2013-04-16 10:48:00,
2013-04-16 06:53:00,65.0,64.8,30.23,ENE,70,0.0,7.5,99,0.00, ,,-99.99,VWS V12.07,2013-04-16 10:53:00,
2013-04-16 06:58:00,64.6,64.4,30.24,ENE,70,0.0,0.0,99,0.00, ,,-99.99,VWS V12.07,2013-04-16 10:58:00,
2013-04-16 07:03:00,64.7,64.5,30.24,NNE,26,0.0,4.4,99,0.00, ,,-99.99,VWS V12.07,2013-04-16 11:03:00,
2013-04-16 07:08:00,64.6,64.5,30.24,NNE,26,0.0,4.4,100,0.00, ,,-99.99,VWS V12.07,2013-04-16 11:08:00,
2013-04-16 07:13:00,64.5,64.4,30.24,NNE,26,0.0,4.4,100,0.00, ,,-99.99,VWS V12.07,2013-04-16 11:13:00,
2013-04-16 07:18:00,64.2,64.1,30.25,NNE,26,0.0,0.0,100,0.00, ,,-99.99,VWS V12.07,2013-04-16 11:18:00,
2013-04-16 07:23:00,64.6,64.5,30.25,NNE,26,0.0,0.0,100,0.00, ,,-99.99,VWS V12.07,2013-04-16 11:23:00,
2013-04-16 07:28:00,64.6,64.5,30.25,NNE,26,0.0,0.0,100,0.00, ,,-99.99,VWS V12.07,2013-04-16 11:28:00,
2013-04-16 07:33:00,64.4,64.3,30.26,NNE,26,0.0,0.0,100,0.00, ,,-99.99,VWS V12.07,2013-04-16 11:33:00,
2013-04-16 07:38:00,64.7,64.7,30.26,NNW,333,0.0,4.9,100,0.00, ,,-99.99,VWS V12.07,2013-04-16 11:38:00,
2013-04-16 07:43:00,64.6,64.5,30.26,NNW,340,4.6,5.0,100,0.00, ,,-99.99,VWS V12.07,2013-04-16 11:43:00,
2013-04-16 07:48:00,64.6,64.5,30.26,NNW,336,0.0,5.0,100,0.00, ,,-99.99,VWS V12.07,2013-04-16 11:48:00,
2013-04-16 07:53:00,64.9,64.8,30.26,NNW,341,5.3,5.6,100,0.00, ,,-99.99,VWS V12.07,2013-04-16 11:53:00,
2013-04-16 07:58:00,64.4,64.2,30.26,NNW,334,2.5,4.7,99,0.00, ,,-99.99,VWS V12.07,2013-04-16 11:58:00,
2013-04-16 08:03:00,64.6,64.5,30.26,NNW,330,3.4,6.0,100,0.00, ,,-99.99,VWS V12.07,2013-04-16 12:03:00,
2013-04-16 08:08:00,64.6,64.4,30.26,NNW,347,4.6,6.8,99,0.00, ,,-99.99,VWS V12.07,2013-04-16 12:08:00,
2013-04-16 08:13:00,64.1,63.9,30.26,North,355,3.1,6.8,99,0.00, ,,-99.99,VWS V12.07,2013-04-16 12:13:00,
2013-04-16 08:18:00,65.1,64.8,30.26,NNW,347,0.0,4.7,99,0.00, ,,-99.99,VWS V12.07,2013-04-16 12:18:00,
2013-04-16 08:23:00,65.2,64.9,30.27,NNW,327,0.0,5.4,99,0.00, ,,-99.99,VWS V12.07,2013-04-16 12:23:00,
2013-04-16 08:29:00,65.0,64.7,30.26,North,2,0.0,5.4,99,0.00, ,,-99.99,VWS V12.07,2013-04-16 12:29:00,
2013-04-16 08:34:00,65.3,64.8,30.26,ENE,67,5.3,7.8,98,0.00, ,,-99.99,VWS V12.07,2013-04-16 12:34:00,
2013-04-16 08:39:00,65.3,64.5,30.26,ENE,67,0.0,10.6,97,0.00, ,,-99.99,VWS V12.07,2013-04-16 12:39:00,
2013-04-16 08:44:00,65.3,64.3,30.26,NE,49,5.4,10.6,96,0.00, ,,-99.99,VWS V12.07,2013-04-16 12:44:00,
2013-04-16 08:49:00,65.9,64.9,30.26,ENE,77,0.0,10.6,97,0.00, ,,-99.99,VWS V12.07,2013-04-16 12:49:00,
2013-04-16 08:54:00,65.8,64.7,30.26,NE,42,0.0,10.9,96,0.00, ,,-99.99,VWS V12.07,2013-04-16 12:54:00,
2013-04-16 08:59:00,65.8,64.6,30.27,NE,40,6.4,11.3,96,0.00, ,,-99.99,VWS V12.07,2013-04-16 12:59:00,
2013-04-16 09:04:00,65.7,64.7,30.27,NNE,24,6.6,11.3,96,0.00, ,,-99.99,VWS V12.07,2013-04-16 13:04:00,
2013-04-16 09:09:00,65.6,64.5,30.27,North,10,8.0,11.3,96,0.00, ,,-99.99,VWS V12.07,2013-04-16 13:09:00,
2013-04-16 09:14:00,65.9,65.1,30.27,NNE,26,7.1,11.6,97,0.00, ,,-99.99,VWS V12.07,2013-04-16 13:14:00,
2013-04-16 09:19:00,66.2,65.2,30.27,NNE,22,7.7,10.4,96,0.00, ,,-99.99,VWS V12.07,2013-04-16 13:19:00,
2013-04-16 09:24:00,66.3,65.1,30.27,NNE,12,7.6,11.2,96,0.00, ,,-99.99,VWS V12.07,2013-04-16 13:24:00,
2013-04-16 09:29:00,65.7,64.5,30.27,North,4,9.1,12.6,96,0.00, ,,-99.99,VWS V12.07,2013-04-16 13:29:00,
2013-04-16 09:34:00,65.9,64.6,30.27,NNE,26,11.4,13.4,96,0.00, ,,-99.99,VWS V12.07,2013-04-16 13:34:00,
2013-04-16 09:40:00,65.7,64.5,30.27,North,8,8.5,11.1,96,0.00, ,,-99.99,VWS V12.07,2013-04-16 13:40:00,
2013-04-16 09:45:00,66.2,64.8,30.27,North,358,8.7,11.1,95,0.00, ,,-99.99,VWS V12.07,2013-04-16 13:45:00,
2013-04-16 09:50:00,66.4,64.8,30.27,North,10,8.9,12.4,95,0.00, ,,-99.99,VWS V12.07,2013-04-16 13:50:00,
2013-04-16 09:55:00,67.0,65.4,30.28,North,2,8.0,12.4,95,0.00, ,,-99.99,VWS V12.07,2013-04-16 13:55:00,
2013-04-16 10:00:00,66.7,65.3,30.28,North,355,8.6,10.9,95,0.00, ,,-99.99,VWS V12.07,2013-04-16 14:00:00,
2013-04-16 10:05:00,66.2,64.8,30.28,North,357,9.3,12.6,95,0.00, ,,-99.99,VWS V12.07,2013-04-16 14:05:00,
2013-04-16 10:10:00,67.0,65.4,30.28,North,353,8.7,12.6,95,0.00, ,,-99.99,VWS V12.07,2013-04-16 14:10:00,
2013-04-16 10:15:00,67.0,65.4,30.28,North,1,7.2,12.6,95,0.00, ,,-99.99,VWS V12.07,2013-04-16 14:15:00,
2013-04-16 10:20:00,67.7,65.7,30.28,NNE,12,6.3,11.5,93,0.00, ,,-99.99,VWS V12.07,2013-04-16 14:20:00,
2013-04-16 10:25:00,68.0,65.8,30.28,NNE,29,10.3,11.5,93,0.00, ,,-99.99,VWS V12.07,2013-04-16 14:25:00,
2013-04-16 10:30:00,68.7,66.3,30.28,NE,48,3.5,11.5,92,0.00, ,,-99.99,VWS V12.07,2013-04-16 14:30:00,
2013-04-16 10:35:00,69.4,66.5,30.28,East,90,0.0,11.5,90,0.00, ,,-99.99,VWS V12.07,2013-04-16 14:35:00,
2013-04-16 10:40:00,69.4,65.3,30.28,NNE,19,9.4,9.9,87,0.00, ,,-99.99,VWS V12.07,2013-04-16 14:40:00,
2013-04-16 10:45:00,69.4,66.1,30.28,NNE,29,0.0,11.1,89,0.00, ,,-99.99,VWS V12.07,2013-04-16 14:45:00,
2013-04-16 10:50:00,70.0,66.2,30.28,North,4,4.7,11.1,88,0.00, ,,-99.99,VWS V12.07,2013-04-16 14:50:00,
2013-04-16 10:55:00,69.9,65.9,30.28,NE,35,7.0,11.9,87,0.00, ,,-99.99,VWS V12.07,2013-04-16 14:55:00,
2013-04-16 11:00:00,69.7,65.3,30.29,ENE,78,7.0,8.6,86,0.00, ,,-99.99,VWS V12.07,2013-04-16 15:00:00,
2013-04-16 11:05:00,71.0,66.0,30.29,NE,39,3.4,8.9,84,0.00, ,,-99.99,VWS V12.07,2013-04-16 15:05:00,
2013-04-16 11:10:00,71.2,64.7,30.29,NNE,19,5.9,9.1,80,0.00, ,,-99.99,VWS V12.07,2013-04-16 15:10:00,
2013-04-16 11:15:00,70.6,64.8,30.29,NNE,17,7.3,10.2,82,0.00, ,,-99.99,VWS V12.07,2013-04-16 15:15:00,
2013-04-16 11:20:00,71.2,64.9,30.29,NNE,28,5.9,9.1,81,0.00, ,,-99.99,VWS V12.07,2013-04-16 15:20:00,
2013-04-16 11:25:00,71.5,64.8,30.29,ENE,59,7.3,9.3,79,0.00, ,,-99.99,VWS V12.07,2013-04-16 15:25:00,
2013-04-16 11:30:00,72.2,65.3,30.29,NE,49,9.4,13.2,79,0.00, ,,-99.99,VWS V12.07,2013-04-16 15:30:00,
2013-04-16 11:35:00,72.2,64.9,30.29,NW,318,4.7,13.2,78,0.00, ,,-99.99,VWS V12.07,2013-04-16 15:35:00,
2013-04-16 11:40:00,71.8,64.2,30.29,North,8,3.2,10.4,77,0.00, ,,-99.99,VWS V12.07,2013-04-16 15:40:00,
2013-04-16 11:45:00,71.5,62.8,30.29,ESE,109,7.1,10.4,74,0.00, ,,-99.99,VWS V12.07,2013-04-16 15:45:00,
2013-04-16 11:50:00,71.2,62.0,30.29,East,92,5.7,10.6,73,0.00, ,,-99.99,VWS V12.07,2013-04-16 15:50:00,
2013-04-16 11:55:00,72.4,62.6,30.29,ESE,102,8.1,10.6,71,0.00, ,,-99.99,VWS V12.07,2013-04-16 15:55:00,
2013-04-16 12:00:00,71.8,62.1,30.29,ESE,104,9.2,9.2,72,0.00, ,,-99.99,VWS V12.07,2013-04-16 16:00:00,
2013-04-16 12:05:00,71.8,61.9,30.29,East,101,7.8,11.0,71,0.00, ,,-99.99,VWS V12.07,2013-04-16 16:05:00,
2013-04-16 12:10:00,72.3,62.9,30.29,ENE,69,4.4,11.0,72,0.00, ,,-99.99,VWS V12.07,2013-04-16 16:10:00,
2013-04-16 12:15:00,72.2,61.9,30.29,SSE,147,6.8,11.0,70,0.00, ,,-99.99,VWS V12.07,2013-04-16 16:15:00,
2013-04-16 12:20:00,72.6,62.0,30.29,ENE,62,5.0,10.4,69,0.00, ,,-99.99,VWS V12.07,2013-04-16 16:20:00,
2013-04-16 12:25:00,73.0,62.3,30.29,East,100,5.2,10.4,69,0.00, ,,-99.99,VWS V12.07,2013-04-16 16:25:00,
2013-04-16 12:30:00,73.2,62.1,30.28,ENE,62,5.8,10.4,68,0.00, ,,-99.99,VWS V12.07,2013-04-16 16:30:00,
2013-04-16 12:35:00,73.3,62.2,30.29,ENE,62,4.8,10.4,68,0.00, ,,-99.99,VWS V12.07,2013-04-16 16:35:00,
2013-04-16 12:40:00,72.9,61.2,30.29,ENE,70,9.0,9.9,67,0.00, ,,-99.99,VWS V12.07,2013-04-16 16:40:00,
2013-04-16 12:45:00,72.4,61.8,30.29,ENE,73,0.0,9.9,69,0.00, ,,-99.99,VWS V12.07,2013-04-16 16:45:00,
2013-04-16 12:50:00,72.1,62.0,30.29,East,88,4.5,9.9,70,0.00, ,,-99.99,VWS V12.07,2013-04-16 16:50:00,
2013-04-16 12:55:00,72.5,62.8,30.29,NNE,24,0.0,9.9,72,0.00, ,,-99.99,VWS V12.07,2013-04-16 16:55:00,
2013-04-16 13:00:00,72.7,61.9,30.29,SE,146,5.2,9.8,69,0.00, ,,-99.99,VWS V12.07,2013-04-16 17:00:00,
2013-04-16 13:05:00,72.5,62.0,30.28,ESE,107,0.0,9.8,70,0.00, ,,-99.99,VWS V12.07,2013-04-16 17:05:00,
2013-04-16 13:10:00,73.1,62.8,30.28,NE,50,0.0,9.8,70,0.00, ,,-99.99,VWS V12.07,2013-04-16 17:10:00,
2013-04-16 13:15:00,73.5,61.7,30.28,SE,143,7.8,9.8,67,0.00, ,,-99.99,VWS V12.07,2013-04-16 17:15:00,
2013-04-16 13:20:00,72.8,59.1,30.28,ENE,74,7.0,11.9,62,0.00, ,,-99.99,VWS V12.07,2013-04-16 17:20:00,
2013-04-16 13:25:00,73.2,60.4,30.28,ESE,122,4.8,11.9,64,0.00, ,,-99.99,VWS V12.07,2013-04-16 17:25:00,
2013-04-16 13:30:00,73.6,61.4,30.28,SE,132,8.5,11.9,66,0.00, ,,-99.99,VWS V12.07,2013-04-16 17:30:00,
2013-04-16 13:35:00,73.7,61.0,30.28,ESE,116,8.0,11.9,64,0.00, ,,-99.99,VWS V12.07,2013-04-16 17:35:00,
2013-04-16 13:40:00,72.9,60.5,30.27,NE,39,5.6,12.3,65,0.00, ,,-99.99,VWS V12.07,2013-04-16 17:40:00,
2013-04-16 13:45:00,73.8,59.8,30.27,ESE,111,8.5,12.3,62,0.00, ,,-99.99,VWS V12.07,2013-04-16 17:45:00,
2013-04-16 13:50:00,73.3,60.7,30.27,ESE,118,9.8,12.3,65,0.00, ,,-99.99,VWS V12.07,2013-04-16 17:50:00,
2013-04-16 13:55:00,72.4,60.8,30.27,SE,130,9.2,12.5,67,0.00, ,,-99.99,VWS V12.07,2013-04-16 17:55:00,
2013-04-16 14:00:00,72.6,61.2,30.27,SE,125,7.1,13.7,67,0.00, ,,-99.99,VWS V12.07,2013-04-16 18:00:00,
2013-04-16 14:06:00,73.3,61.3,30.27,SE,142,8.3,15.0,66,0.00, ,,-99.99,VWS V12.07,2013-04-16 18:06:00,
2013-04-16 14:11:00,72.9,61.0,30.27,SE,136,8.3,16.2,66,0.00, ,,-99.99,VWS V12.07,2013-04-16 18:11:00,
2013-04-16 14:16:00,72.7,60.9,30.27,East,101,10.4,10.4,66,0.00, ,,-99.99,VWS V12.07,2013-04-16 18:16:00,
2013-04-16 14:21:00,73.0,60.3,30.27,East,81,10.1,16.7,64,0.00, ,,-99.99,VWS V12.07,2013-04-16 18:21:00,
2013-04-16 14:26:00,72.9,61.1,30.26,ESE,109,11.7,16.7,66,0.00, ,,-99.99,VWS V12.07,2013-04-16 18:26:00,
2013-04-16 14:31:00,72.0,59.7,30.27,ENE,70,10.6,16.7,65,0.00, ,,-99.99,VWS V12.07,2013-04-16 18:31:00,
2013-04-16 14:36:00,73.3,60.6,30.27,ENE,73,9.8,9.8,64,0.00, ,,-99.99,VWS V12.07,2013-04-16 18:36:00,
2013-04-16 14:42:00,72.9,60.8,30.26,East,92,8.3,13.5,66,0.00, ,,-99.99,VWS V12.07,2013-04-16 18:42:00,
2013-04-16 14:47:00,72.1,59.7,30.27,East,88,9.8,14.8,65,0.00, ,,-99.99,VWS V12.07,2013-04-16 18:47:00,
2013-04-16 14:52:00,72.1,59.8,30.26,ENE,69,11.1,15.7,65,0.00, ,,-99.99,VWS V12.07,2013-04-16 18:52:00,
2013-04-16 14:57:00,72.1,59.9,30.26,East,92,14.1,15.5,66,0.00, ,,-99.99,VWS V12.07,2013-04-16 18:57:00,
2013-04-16 15:02:00,73.3,61.2,30.26,ENE,69,9.3,15.5,66,0.00, ,,-99.99,VWS V12.07,2013-04-16 19:02:00,
2013-04-16 15:07:00,72.3,60.3,30.26,East,98,12.7,16.7,66,0.00, ,,-99.99,VWS V12.07,2013-04-16 19:07:00,
2013-04-16 15:12:00,72.6,60.8,30.26,East,80,9.1,16.7,66,0.00, ,,-99.99,VWS V12.07,2013-04-16 19:12:00,
2013-04-16 15:17:00,71.9,59.5,30.26,East,90,11.4,13.2,65,0.00, ,,-99.99,VWS V12.07,2013-04-16 19:17:00,
2013-04-16 15:22:00,72.3,59.7,30.26,ENE,73,8.5,15.8,64,0.00, ,,-99.99,VWS V12.07,2013-04-16 19:22:00,
2013-04-16 15:27:00,71.5,59.6,30.26,ENE,78,16.5,17.9,66,0.00, ,,-99.99,VWS V12.07,2013-04-16 19:27:00,
2013-04-16 15:32:00,71.9,59.8,30.26,East,91,12.3,17.9,66,0.00, ,,-99.99,VWS V12.07,2013-04-16 19:32:00,
2013-04-16 15:37:00,72.0,59.3,30.25,ESE,122,7.0,12.7,64,0.00, ,,-99.99,VWS V12.07,2013-04-16 19:37:00,
2013-04-16 15:42:00,71.6,58.8,30.25,ENE,70,10.8,14.5,64,0.00, ,,-99.99,VWS V12.07,2013-04-16 19:42:00,
2013-04-16 15:47:00,72.6,59.7,30.25,ENE,67,12.2,14.5,64,0.00, ,,-99.99,VWS V12.07,2013-04-16 19:47:00,
2013-04-16 15:52:00,72.4,59.5,30.25,ESE,121,9.9,14.7,64,0.00, ,,-99.99,VWS V12.07,2013-04-16 19:52:00,
2013-04-16 15:57:00,72.0,59.3,30.25,SSE,153,9.7,12.8,64,0.00, ,,-99.99,VWS V12.07,2013-04-16 19:57:00,
2013-04-16 16:02:00,71.7,59.0,30.25,East,97,9.8,14.9,64,0.00, ,,-99.99,VWS V12.07,2013-04-16 20:02:00,
2013-04-16 16:07:00,72.3,58.6,30.25,SE,126,13.9,14.9,62,0.00, ,,-99.99,VWS V12.07,2013-04-16 20:07:00,
2013-04-16 16:12:00,72.5,59.9,30.25,East,88,9.3,14.9,65,0.00, ,,-99.99,VWS V12.07,2013-04-16 20:12:00,
2013-04-16 16:17:00,71.5,58.7,30.25,SE,136,8.5,12.1,64,0.00, ,,-99.99,VWS V12.07,2013-04-16 20:17:00,
2013-04-16 16:22:00,72.0,59.5,30.25,ESE,114,7.4,13.7,65,0.00, ,,-99.99,VWS V12.07,2013-04-16 20:22:00,
2013-04-16 16:27:00,71.9,59.0,30.25,ESE,123,5.8,13.7,64,0.00, ,,-99.99,VWS V12.07,2013-04-16 20:27:00,
2013-04-16 16:32:00,71.5,58.3,30.25,ESE,104,10.4,14.7,63,0.00, ,,-99.99,VWS V12.07,2013-04-16 20:32:00,
2013-04-16 16:37:00,71.7,58.7,30.25,NE,45,4.7,13.7,64,0.00, ,,-99.99,VWS V12.07,2013-04-16 20:37:00,
2013-04-16 16:42:00,71.5,59.1,30.25,East,83,10.6,15.7,65,0.00, ,,-99.99,VWS V12.07,2013-04-16 20:42:00,
2013-04-16 16:47:00,71.4,59.8,30.25,ESE,119,7.9,15.8,67,0.00, ,,-99.99,VWS V12.07,2013-04-16 20:47:00,
2013-04-16 16:52:00,71.3,58.9,30.25,ENE,64,10.9,15.8,65,0.00, ,,-99.99,VWS V12.07,2013-04-16 20:52:00,
2013-04-16 16:57:00,71.0,57.9,30.25,East,81,10.9,18.1,63,0.00, ,,-99.99,VWS V12.07,2013-04-16 20:57:00,
2013-04-16 17:02:00,71.4,58.8,30.25,ENE,74,8.9,18.1,64,0.00, ,,-99.99,VWS V12.07,2013-04-16 21:02:00,
2013-04-16 17:07:00,71.6,58.7,30.25,NE,52,9.5,18.1,64,0.00, ,,-99.99,VWS V12.07,2013-04-16 21:07:00,
2013-04-16 17:12:00,71.4,58.3,30.25,ESE,121,6.9,18.1,63,0.00, ,,-99.99,VWS V12.07,2013-04-16 21:12:00,
2013-04-16 17:17:00,71.0,58.0,30.25,ENE,76,10.9,12.0,63,0.00, ,,-99.99,VWS V12.07,2013-04-16 21:17:00,
2013-04-16 17:22:00,71.2,58.7,30.25,East,98,11.4,15.6,65,0.00, ,,-99.99,VWS V12.07,2013-04-16 21:22:00,
2013-04-16 17:27:00,70.6,57.9,30.25,East,84,12.9,15.6,64,0.00, ,,-99.99,VWS V12.07,2013-04-16 21:27:00,
2013-04-16 17:32:00,71.7,58.9,30.25,East,81,7.4,16.4,64,0.00, ,,-99.99,VWS V12.07,2013-04-16 21:32:00,
2013-04-16 17:37:00,71.1,57.5,30.25,ESE,109,11.0,14.4,62,0.00, ,,-99.99,VWS V12.07,2013-04-16 21:37:00,
2013-04-16 17:42:00,71.5,58.4,30.25,ESE,105,10.4,14.8,63,0.00, ,,-99.99,VWS V12.07,2013-04-16 21:42:00,
2013-04-16 17:47:00,71.3,58.2,30.25,ENE,77,9.9,14.8,63,0.00, ,,-99.99,VWS V12.07,2013-04-16 21:47:00,
2013-04-16 17:52:00,70.7,57.8,30.25,SE,128,6.4,15.0,64,0.00, ,,-99.99,VWS V12.07,2013-04-16 21:52:00,
2013-04-16 17:57:00,71.5,58.7,30.25,East,100,8.7,9.8,64,0.00, ,,-99.99,VWS V12.07,2013-04-16 21:57:00,
2013-04-16 18:02:00,71.0,58.3,30.25,ESE,111,13.5,15.2,64,0.00, ,,-99.99,VWS V12.07,2013-04-16 22:02:00,
2013-04-16 18:07:00,71.0,58.4,30.25,ESE,111,11.4,15.2,64,0.00, ,,-99.99,VWS V12.07,2013-04-16 22:07:00,
2013-04-16 18:12:00,71.5,59.3,30.25,SE,133,10.3,15.2,65,0.00, ,,-99.99,VWS V12.07,2013-04-16 22:12:00,
2013-04-16 18:17:00,70.9,57.6,30.25,East,90,12.4,14.7,63,0.00, ,,-99.99,VWS V12.07,2013-04-16 22:17:00,
2013-04-16 18:22:00,70.3,56.9,30.25,ESE,102,12.9,15.3,62,0.00, ,,-99.99,VWS V12.07,2013-04-16 22:22:00,
2013-04-16 18:27:00,71.1,58.7,30.25,East,91,11.9,15.3,65,0.00, ,,-99.99,VWS V12.07,2013-04-16 22:27:00,
2013-04-16 18:32:00,69.9,57.9,30.25,ESE,111,11.7,15.3,66,0.00, ,,-99.99,VWS V12.07,2013-04-16 22:32:00,
2013-04-16 18:37:00,69.6,58.2,30.24,East,100,11.9,18.2,67,0.00, ,,-99.99,VWS V12.07,2013-04-16 22:37:00,
2013-04-16 18:42:00,69.8,58.4,30.24,ESE,111,10.9,18.2,67,0.00, ,,-99.99,VWS V12.07,2013-04-16 22:42:00,
2013-04-16 18:47:00,69.8,58.7,30.24,SE,130,10.4,18.2,68,0.00, ,,-99.99,VWS V12.07,2013-04-16 22:47:00,
2013-04-16 18:52:00,70.0,59.2,30.24,East,95,8.9,18.2,69,0.00, ,,-99.99,VWS V12.07,2013-04-16 22:52:00,
2013-04-16 18:57:00,69.4,59.3,30.24,ESE,112,5.5,9.1,70,0.00, ,,-99.99,VWS V12.07,2013-04-16 22:57:00,
2013-04-16 19:02:00,69.7,59.6,30.24,ENE,70,8.9,12.6,70,0.00, ,,-99.99,VWS V12.07,2013-04-16 23:02:00,
2013-04-16 19:07:00,69.3,59.9,30.24,East,94,8.8,14.7,72,0.00, ,,-99.99,VWS V12.07,2013-04-16 23:07:00,
2013-04-16 19:12:00,69.4,60.3,30.24,ESE,102,9.9,14.7,73,0.00, ,,-99.99,VWS V12.07,2013-04-16 23:12:00,
2013-04-16 19:17:00,68.8,60.0,30.24,ESE,114,8.3,11.5,74,0.00, ,,-99.99,VWS V12.07,2013-04-16 23:17:00,
2013-04-16 19:22:00,68.8,60.3,30.24,ESE,102,8.6,11.7,74,0.00, ,,-99.99,VWS V12.07,2013-04-16 23:22:00,
2013-04-16 19:27:00,69.0,60.9,30.24,ESE,108,8.5,12.9,75,0.00, ,,-99.99,VWS V12.07,2013-04-16 23:27:00,
2013-04-16 19:32:00,68.4,60.5,30.24,ESE,112,10.7,12.9,76,0.00, ,,-99.99,VWS V12.07,2013-04-16 23:32:00,
2013-04-16 19:38:00,68.4,60.7,30.24,ESE,118,7.7,11.5,76,0.00, ,,-99.99,VWS V12.07,2013-04-16 23:38:00,
2013-04-16 19:43:00,68.5,60.9,30.24,ESE,108,5.3,11.5,77,0.00, ,,-99.99,VWS V12.07,2013-04-16 23:43:00,
2013-04-16 19:48:00,68.3,61.0,30.24,East,101,10.1,11.5,77,0.00, ,,-99.99,VWS V12.07,2013-04-16 23:48:00,
2013-04-16 19:53:00,68.1,61.1,30.24,ESE,105,9.3,11.5,78,0.00, ,,-99.99,VWS V12.07,2013-04-16 23:53:00,
2013-04-16 19:58:00,68.1,61.3,30.24,East,90,6.8,11.2,79,0.00, ,,-99.99,VWS V12.07,2013-04-16 23:58:00,
2013-04-16 20:03:00,68.0,61.6,30.24,East,88,7.2,11.3,80,0.00, ,,-99.99,VWS V12.07,2013-04-17 00:03:00,
2013-04-16 20:08:00,68.1,61.9,30.25,ESE,102,6.0,11.3,80,0.00, ,,-99.99,VWS V12.07,2013-04-17 00:08:00,
2013-04-16 20:13:00,67.9,61.9,30.25,East,83,5.8,11.3,81,0.00, ,,-99.99,VWS V12.07,2013-04-17 00:13:00,
2013-04-16 20:18:00,68.2,62.2,30.26,ENE,70,4.5,6.1,81,0.00, ,,-99.99,VWS V12.07,2013-04-17 00:18:00,
2013-04-16 20:23:00,68.9,62.5,30.26,ENE,62,5.4,7.8,80,0.00, ,,-99.99,VWS V12.07,2013-04-17 00:23:00,
2013-04-16 20:28:00,68.6,62.0,30.26,ENE,57,6.5,8.0,79,0.00, ,,-99.99,VWS V12.07,2013-04-17 00:28:00,
2013-04-16 20:33:00,68.1,62.0,30.26,East,80,5.3,8.5,81,0.00, ,,-99.99,VWS V12.07,2013-04-17 00:33:00,
2013-04-16 20:38:00,67.9,62.3,30.26,ENE,78,6.1,7.1,82,0.00, ,,-99.99,VWS V12.07,2013-04-17 00:38:00,
2013-04-16 20:43:00,67.9,61.6,30.26,ENE,62,7.0,7.8,80,0.00, ,,-99.99,VWS V12.07,2013-04-17 00:43:00,
2013-04-16 20:48:00,68.9,62.5,30.26,ENE,71,7.6,8.3,80,0.00, ,,-99.99,VWS V12.07,2013-04-17 00:48:00,
2013-04-16 20:53:00,68.7,62.6,30.26,East,83,6.6,8.3,81,0.00, ,,-99.99,VWS V12.07,2013-04-17 00:53:00,
2013-04-16 20:58:00,68.8,62.5,30.26,ENE,60,4.5,6.2,80,0.00, ,,-99.99,VWS V12.07,2013-04-17 00:58:00,
2013-04-16 21:03:00,67.4,62.0,30.26,ENE,74,5.3,7.3,83,0.00, ,,-99.99,VWS V12.07,2013-04-17 01:03:00,
2013-04-16 21:08:00,67.7,62.9,30.27,ENE,73,6.3,7.6,85,0.00, ,,-99.99,VWS V12.07,2013-04-17 01:08:00,
2013-04-16 21:13:00,68.3,62.8,30.27,East,83,5.2,7.6,82,0.00, ,,-99.99,VWS V12.07,2013-04-17 01:13:00,
2013-04-16 21:18:00,68.3,62.7,30.27,ENE,71,3.3,6.3,82,0.00, ,,-99.99,VWS V12.07,2013-04-17 01:18:00,
2013-04-16 21:23:00,68.5,62.7,30.27,ENE,59,0.0,6.3,82,0.00, ,,-99.99,VWS V12.07,2013-04-17 01:23:00,
2013-04-16 21:28:00,67.9,62.5,30.27,East,83,0.0,6.3,83,0.00, ,,-99.99,VWS V12.07,2013-04-17 01:28:00,
2013-04-16 21:33:00,67.1,62.4,30.27,East,83,5.2,6.3,85,0.00, ,,-99.99,VWS V12.07,2013-04-17 01:33:00,
2013-04-16 21:38:00,67.3,63.0,30.27,East,91,0.0,4.5,86,0.00, ,,-99.99,VWS V12.07,2013-04-17 01:38:00,
2013-04-16 21:43:00,66.8,62.3,30.27,East,85,5.2,5.6,86,0.00, ,,-99.99,VWS V12.07,2013-04-17 01:43:00,
2013-04-16 21:48:00,66.7,62.2,30.27,ENE,66,0.0,6.2,86,0.00, ,,-99.99,VWS V12.07,2013-04-17 01:48:00,
2013-04-16 21:53:00,66.9,62.6,30.27,ENE,66,0.0,6.2,86,0.00, ,,-99.99,VWS V12.07,2013-04-17 01:53:00,
2013-04-16 21:58:00,67.1,62.8,30.27,ENE,66,0.0,0.0,86,0.00, ,,-99.99,VWS V12.07,2013-04-17 01:58:00,
2013-04-16 22:03:00,67.0,63.2,30.27,East,95,0.0,4.6,88,0.00, ,,-99.99,VWS V12.07,2013-04-17 02:03:00,
2013-04-16 22:08:00,66.8,62.9,30.27,East,87,0.0,4.6,87,0.00, ,,-99.99,VWS V12.07,2013-04-17 02:08:00,
2013-04-16 22:13:00,66.7,63.0,30.27,ENE,78,5.2,7.1,88,0.00, ,,-99.99,VWS V12.07,2013-04-17 02:13:00,
2013-04-16 22:18:00,66.9,63.0,30.27,East,85,0.0,4.2,87,0.00, ,,-99.99,VWS V12.07,2013-04-17 02:18:00,
2013-04-16 22:23:00,66.8,62.9,30.27,ENE,78,0.0,7.3,87,0.00, ,,-99.99,VWS V12.07,2013-04-17 02:23:00,
2013-04-16 22:28:00,66.4,62.6,30.27,East,81,0.0,7.5,88,0.00, ,,-99.99,VWS V12.07,2013-04-17 02:28:00,
2013-04-16 22:33:00,66.5,62.7,30.27,East,81,0.0,7.5,88,0.00, ,,-99.99,VWS V12.07,2013-04-17 02:33:00,
2013-04-16 22:38:00,66.5,62.7,30.27,ENE,74,0.0,3.3,87,0.00, ,,-99.99,VWS V12.07,2013-04-17 02:38:00,
2013-04-16 22:43:00,66.8,62.9,30.26,ENE,77,5.2,5.5,87,0.00, ,,-99.99,VWS V12.07,2013-04-17 02:43:00,
2013-04-16 22:48:00,66.6,62.5,30.26,East,101,3.4,6.5,87,0.00, ,,-99.99,VWS V12.07,2013-04-17 02:48:00,
2013-04-16 22:53:00,66.8,62.8,30.26,East,101,0.0,6.5,87,0.00, ,,-99.99,VWS V12.07,2013-04-17 02:53:00,
2013-04-16 22:58:00,66.8,62.8,30.26,East,101,0.0,0.0,87,0.00, ,,-99.99,VWS V12.07,2013-04-17 02:58:00,
2013-04-16 23:03:00,66.3,62.4,30.26,ESE,119,0.0,6.0,87,0.00, ,,-99.99,VWS V12.07,2013-04-17 03:03:00,
2013-04-16 23:08:00,66.2,62.4,30.26,SE,125,6.1,7.5,88,0.00, ,,-99.99,VWS V12.07,2013-04-17 03:08:00,
2013-04-16 23:13:00,66.5,62.8,30.25,SE,129,4.9,7.5,88,0.00, ,,-99.99,VWS V12.07,2013-04-17 03:13:00,
2013-04-16 23:18:00,66.0,62.4,30.25,SE,140,0.0,0.0,88,0.00, ,,-99.99,VWS V12.07,2013-04-17 03:18:00,
2013-04-16 23:23:00,65.8,62.3,30.25,SE,126,6.0,6.5,89,0.00, ,,-99.99,VWS V12.07,2013-04-17 03:23:00,
2013-04-16 23:28:00,65.7,62.3,30.25,ESE,115,5.9,6.8,89,0.00, ,,-99.99,VWS V12.07,2013-04-17 03:28:00,
2013-04-16 23:33:00,66.1,62.8,30.25,ESE,116,0.0,6.8,89,0.00, ,,-99.99,VWS V12.07,2013-04-17 03:33:00,
2013-04-16 23:38:00,66.2,63.0,30.25,ESE,116,0.0,0.0,89,0.00, ,,-99.99,VWS V12.07,2013-04-17 03:38:00,
2013-04-16 23:43:00,66.1,62.8,30.25,ESE,116,0.0,0.0,89,0.00, ,,-99.99,VWS V12.07,2013-04-17 03:43:00,
2013-04-16 23:48:00,65.8,62.2,30.25,SE,133,7.2,7.3,88,0.00, ,,-99.99,VWS V12.07,2013-04-17 03:48:00,
2013-04-16 23:53:00,65.5,61.6,30.25,SE,143,6.2,7.6,87,0.00, ,,-99.99,VWS V12.07,2013-04-17 03:53:00,
2013-04-16 23:58:00,65.7,61.6,30.25,SE,129,4.8,7.1,87,0.00, ,,-99.99,VWS V12.07,2013-04-17 03:58:00,